Terminal Aerodrome Forecast
Issued by NWS

Home | Current Version | Previous Version | Text Only | Print | Product List | Glossary On
Versions: 1 2 3 4 5 6 7 8 9 10 11 12 13 14 15 16 17 18 19 20 21 22 23 24 25 26 27 28 29 30
487
FTUS44 KOUN 292340
TAFGAG
TAF
KGAG 292340Z 3000/3024 03007KT 3SM BR OVC004
      TEMPO 3000/3002 -SHRA
     FM300700 31009KT 2SM BR SCT250
     FM301200 30010KT P6SM SCT250=

USA.gov is the U.S. government's official web portal to all federal, state and local government web resources and services.